Time;durP1;ratioP1;P1;durP2;ratioP2;P2;SDS_P1;SDS_P2;PMS_P1;PMS_P2;Temp;Humidity;BMP_temperature;BMP_pressure;BME280_temperature;BME280_humidity;BME280_pressure;Samples;Min_cycle;Max_cycle;Signal;HPM_P1;HPM_P2
2022/11/10 00:01:09;;;;;;;;;;;14.00;69.70;;;9.53;100.00;95960.13;4984311;28;20331;-54
2022/11/10 00:03:36;;;;;;;;;;;14.00;69.80;;;9.56;100.00;95962.28;4972574;28;19917;-53
2022/11/10 00:06:05;;;;;;;;;;;14.00;69.80;;;9.58;100.00;95970.00;4983874;28;19916;-53
2022/11/10 00:08:34;;;;;;;;;;;14.00;69.90;;;9.59;100.00;95971.63;4989956;28;19916;-51
2022/11/10 00:11:05;;;;;;;;;;;14.00;69.90;;;9.61;100.00;95974.84;4993104;28;20372;-53
2022/11/10 00:16:59;;;;;;;;;;;14.00;69.90;;;9.62;100.00;95971.94;4990936;28;19916;-54
2022/11/10 00:19:11;;;;;;;;;;;14.00;69.90;;;9.64;100.00;95992.97;4988342;28;20016;-54
2022/11/10 00:21:39;;;;;;;;;;;14.00;69.90;;;9.66;100.00;95993.53;4992991;28;20371;-51
2022/11/10 00:24:05;;;;;;;;;;;14.00;70.00;;;9.67;100.00;95987.94;4987619;28;20020;-53
2022/11/10 00:26:31;;;;;;;;;;;14.00;70.00;;;9.69;100.00;95985.06;4990322;28;19909;-51
2022/11/10 00:28:57;;;;;;;;;;;14.10;70.10;;;9.71;100.00;95991.75;4972547;28;19919;-53
2022/11/10 00:31:27;;;;;;;;;;;14.10;70.00;;;9.72;100.00;95989.88;4987915;28;19917;-51
2022/11/10 00:33:53;;;;;;;;;;;14.10;70.00;;;9.72;100.00;95992.53;4994424;28;20265;-52
2022/11/10 00:36:19;;;;;;;;;;;14.10;70.00;;;9.71;100.00;95997.06;4977346;28;19913;-54
2022/11/10 00:38:44;;;;;;;;;;;14.10;70.00;;;9.73;100.00;95999.44;4993360;28;19916;-55
2022/11/10 00:41:10;;;;;;;;;;;14.20;70.00;;;9.72;100.00;96000.50;4990793;28;20372;-51
2022/11/10 00:43:36;;;;;;;;;;;14.20;70.00;;;9.73;100.00;96010.91;4993321;28;19917;-52
2022/11/10 00:46:01;;;;;;;;;;;14.10;69.90;;;9.73;100.00;96007.44;4991007;28;19909;-53
2022/11/10 00:48:27;;;;;;;;;;;14.20;70.00;;;9.73;100.00;96015.41;4986282;28;20543;-53
2022/11/10 00:50:56;;;;;;;;;;;14.10;70.00;;;9.71;100.00;96023.66;4989942;28;19951;-50
2022/11/10 00:53:22;;;;;;;;;;;14.10;70.00;;;9.72;100.00;96021.78;4990839;28;20292;-53
2022/11/10 00:55:47;;;;;;;;;;;14.10;70.00;;;9.73;100.00;96020.75;4989554;28;19909;-55
2022/11/10 00:58:13;;;;;;;;;;;14.10;70.00;;;9.72;100.00;96029.78;4973188;28;22072;-50
2022/11/10 01:00:39;;;;;;;;;;;14.10;70.10;;;9.72;100.00;96030.56;4976137;28;19964;-49
2022/11/10 01:03:06;;;;;;;;;;;14.10;70.10;;;9.71;100.00;96044.09;4982757;28;19919;-52
2022/11/10 01:05:36;;;;;;;;;;;14.10;70.10;;;9.73;100.00;96031.38;4992579;28;19913;-49
2022/11/10 01:08:04;;;;;;;;;;;14.10;70.10;;;9.75;100.00;96036.47;4992755;28;20032;-54
2022/11/10 01:10:29;;;;;;;;;;;14.10;70.10;;;9.73;100.00;96036.69;4988601;28;20326;-50
2022/11/10 01:12:55;;;;;;;;;;;14.10;70.10;;;9.71;100.00;96041.44;4963803;28;19910;-54
2022/11/10 01:15:21;;;;;;;;;;;14.10;70.10;;;9.71;100.00;96041.44;5002383;28;19917;-53
2022/11/10 01:17:47;;;;;;;;;;;14.10;70.10;;;9.72;100.00;96051.06;4989312;28;19909;-53
2022/11/10 01:20:13;;;;;;;;;;;14.10;70.20;;;9.72;100.00;96051.06;4990332;28;19914;-52
2022/11/10 01:22:39;;;;;;;;;;;14.10;70.20;;;9.68;100.00;96053.41;4966284;28;19916;-51
2022/11/10 01:25:06;;;;;;;;;;;14.10;71.00;;;9.70;100.00;96056.63;4989981;28;20044;-51
2022/11/10 01:27:32;;;;;;;;;;;14.10;70.30;;;9.70;100.00;96051.28;4991616;28;20459;-52
2022/11/10 01:29:57;;;;;;;;;;;14.10;70.30;;;9.68;100.00;96047.25;4955686;28;19914;-50
2022/11/10 01:32:23;;;;;;;;;;;14.10;70.30;;;9.66;100.00;96044.88;4992253;28;20275;-52
2022/11/10 01:34:49;;;;;;;;;;;14.00;70.30;;;9.67;100.00;96043.81;4981116;28;20430;-53
2022/11/10 01:37:15;;;;;;;;;;;14.10;70.30;;;9.68;100.00;96048.09;4991556;28;19917;-50
2022/11/10 01:39:41;;;;;;;;;;;14.10;70.30;;;9.70;100.00;96048.63;4989849;28;19917;-52
2022/11/10 01:42:06;;;;;;;;;;;14.10;70.30;;;9.71;100.00;96046.78;4992852;28;19918;-52
2022/11/10 01:44:39;;;;;;;;;;;14.10;70.30;;;9.72;100.00;96061.69;4992649;28;20337;-51
2022/11/10 01:47:05;;;;;;;;;;;14.10;70.40;;;9.73;100.00;96060.63;4955794;28;19979;-50
2022/11/10 01:49:34;;;;;;;;;;;14.10;70.40;;;9.73;100.00;96063.31;4973544;28;20028;-51
2022/11/10 01:52:12;;;;;;;;;;;14.10;70.40;;;9.72;100.00;96064.34;4988906;28;19909;-53
2022/11/10 01:54:45;;;;;;;;;;;14.10;70.30;;;9.69;100.00;96065.66;4971087;28;20107;-50
2022/11/10 01:57:14;;;;;;;;;;;14.20;70.40;;;9.69;100.00;96063.00;4984789;28;19939;-53
2022/11/10 01:59:48;;;;;;;;;;;14.20;70.30;;;9.72;100.00;96061.69;4976029;28;19956;-49
2022/11/10 02:02:37;;;;;;;;;;;14.20;70.30;;;9.71;100.00;96060.06;4948993;28;19912;-52
2022/11/10 02:05:04;;;;;;;;;;;14.20;70.30;;;9.69;100.00;96068.31;4979499;28;19929;-49
2022/11/10 02:07:34;;;;;;;;;;;14.20;70.30;;;9.66;100.00;96068.00;4970765;28;19970;-53
2022/11/10 02:10:05;;;;;;;;;;;14.20;70.20;;;9.62;100.00;96070.34;4990234;28;20487;-52
2022/11/10 02:12:37;;;;;;;;;;;14.20;70.20;;;9.62;100.00;96067.69;4985026;28;19916;-49
2022/11/10 02:15:11;;;;;;;;;;;14.10;70.10;;;9.64;100.00;96072.75;4996170;28;20030;-52
2022/11/10 02:17:37;;;;;;;;;;;14.10;70.20;;;9.64;100.00;96068.25;4971985;28;19915;-51
2022/11/10 02:20:13;;;;;;;;;;;14.10;70.30;;;9.59;100.00;96070.03;4974933;28;19909;-51
2022/11/10 02:22:40;;;;;;;;;;;14.00;70.30;;;9.63;100.00;96076.47;4971721;28;20320;-51
2022/11/10 02:25:06;;;;;;;;;;;14.00;70.30;;;9.63;100.00;96073.81;4990203;28;20291;-51
2022/11/10 02:27:32;;;;;;;;;;;14.00;70.40;;;9.63;100.00;96073.81;4982453;28;20432;-53
2022/11/10 02:29:59;;;;;;;;;;;14.00;70.40;;;9.63;100.00;96082.59;4985110;28;20004;-52
2022/11/10 02:32:25;;;;;;;;;;;14.00;70.40;;;9.62;100.00;96083.66;4958355;28;19917;-50
2022/11/10 02:34:53;;;;;;;;;;;14.00;70.50;;;9.62;100.00;96090.81;4988354;28;19913;-54
2022/11/10 02:37:21;;;;;;;;;;;14.00;70.40;;;9.60;100.00;96093.72;4989001;28;19967;-52
2022/11/10 02:39:47;;;;;;;;;;;14.00;70.40;;;9.59;100.00;96099.28;4995112;28;19909;-53
2022/11/10 02:42:15;;;;;;;;;;;14.10;70.50;;;9.59;100.00;96100.09;4992659;28;20434;-54
2022/11/10 02:44:45;;;;;;;;;;;14.10;70.50;;;9.57;100.00;96096.88;4973695;28;19913;-51
2022/11/10 02:47:10;;;;;;;;;;;14.00;70.40;;;9.58;100.00;96110.97;4992091;28;20034;-52
2022/11/10 02:49:36;;;;;;;;;;;14.00;70.40;;;9.60;100.00;96111.53;4993920;28;19910;-51
2022/11/10 02:52:02;;;;;;;;;;;14.00;70.50;;;9.61;100.00;96115.81;4976490;28;19967;-51
2022/11/10 02:54:28;;;;;;;;;;;14.00;70.50;;;9.63;100.00;96111.84;4975168;28;19928;-50
2022/11/10 02:56:53;;;;;;;;;;;14.00;70.50;;;9.63;100.00;96116.38;4984666;28;19909;-53
2022/11/10 02:59:19;;;;;;;;;;;14.10;70.60;;;9.62;100.00;96120.06;4989385;28;20419;-50
2022/11/10 03:01:45;;;;;;;;;;;14.10;70.50;;;9.60;100.00;96120.31;4985403;28;19996;-53
2022/11/10 03:04:10;;;;;;;;;;;14.10;70.50;;;9.59;100.00;96131.19;4986002;28;19921;-50
2022/11/10 03:06:39;;;;;;;;;;;14.00;70.40;;;9.58;100.00;96134.91;4986134;28;19959;-51
2022/11/10 03:09:05;;;;;;;;;;;14.00;70.40;;;9.56;100.00;96137.81;4981738;28;19940;-51
2022/11/10 03:11:31;;;;;;;;;;;14.00;70.40;;;9.54;100.00;96139.13;4989066;28;19909;-51
2022/11/10 03:13:57;;;;;;;;;;;14.00;70.40;;;9.49;100.00;96145.97;4985886;28;19928;-53
2022/11/10 03:16:29;;;;;;;;;;;14.00;70.30;;;9.48;100.00;96156.84;4976211;28;19954;-50
2022/11/10 03:18:55;;;;;;;;;;;14.00;70.30;;;9.47;100.00;96157.91;4990523;28;19917;-55
2022/11/10 03:21:20;;;;;;;;;;;14.00;70.30;;;9.46;100.00;96159.75;4991540;28;20088;-53
2022/11/10 03:23:46;;;;;;;;;;;13.90;70.30;;;9.44;100.00;96164.50;4988503;28;20364;-49
2022/11/10 03:26:13;;;;;;;;;;;13.90;70.30;;;9.41;100.00;96165.00;4986383;28;19916;-55
2022/11/10 03:28:38;;;;;;;;;;;13.90;70.30;;;9.41;100.00;96172.97;4985532;28;19938;-53
2022/11/10 03:31:07;;;;;;;;;;;13.90;70.30;;;9.38;100.00;96167.34;4971123;28;19915;-49
2022/11/10 03:33:33;;;;;;;;;;;13.90;70.40;;;9.35;100.00;96173.94;4987122;28;19909;-49
2022/11/10 03:35:58;;;;;;;;;;;13.90;70.30;;;9.35;100.00;96181.91;4989367;28;19917;-50
2022/11/10 03:38:24;;;;;;;;;;;13.90;70.30;;;9.35;100.00;96181.91;4983217;28;20463;-49
2022/11/10 03:40:50;;;;;;;;;;;13.90;70.30;;;9.33;100.00;96189.31;4986513;28;19913;-50
2022/11/10 03:43:16;;;;;;;;;;;13.80;70.30;;;9.30;100.00;96186.34;4967944;28;20360;-46
2022/11/10 03:45:44;;;;;;;;;;;13.80;70.40;;;9.29;100.00;96185.53;4986360;28;19952;-51
2022/11/10 03:48:10;;;;;;;;;;;13.80;70.40;;;9.27;100.00;96188.44;4993312;28;20292;-50
2022/11/10 03:50:35;;;;;;;;;;;13.80;70.40;;;9.27;100.00;96198.25;4991897;28;19909;-48
2022/11/10 03:53:01;;;;;;;;;;;13.80;70.30;;;9.23;100.00;96197.13;4993093;28;19916;-56
2022/11/10 03:55:27;;;;;;;;;;;13.80;70.20;;;9.18;100.00;96195.22;4976931;28;19990;-53
2022/11/10 03:57:52;;;;;;;;;;;13.80;70.20;;;9.16;100.00;96194.63;4990997;28;19932;-50
2022/11/10 04:00:24;;;;;;;;;;;13.70;70.10;;;9.14;100.00;96202.03;4992257;28;19914;-47
2022/11/10 04:02:50;;;;;;;;;;;13.70;70.20;;;9.13;100.00;96200.44;4997459;28;19917;-47
2022/11/10 04:10:58;;;;;;;;;;;13.60;70.40;;;9.01;100.00;96208.47;4993646;28;19920;-49
2022/11/10 04:16:13;;;;;;;;;;;13.50;70.40;;;8.97;100.00;96215.31;4965300;28;19936;-48
2022/11/10 04:18:39;;;;;;;;;;;13.50;70.40;;;8.98;100.00;96224.88;4973918;28;19940;-48
2022/11/10 04:21:05;;;;;;;;;;;13.50;70.50;;;8.99;100.00;96231.81;4993592;28;19909;-53
2022/11/10 04:23:35;;;;;;;;;;;13.50;70.50;;;8.98;100.00;96230.19;4955056;28;19968;-54
2022/11/10 04:26:29;;;;;;;;;;;13.50;70.60;;;8.96;100.00;96224.31;4987219;28;20004;-50
2022/11/10 04:28:59;;;;;;;;;;;13.40;70.60;;;8.98;100.00;96235.50;4990850;28;19952;-51
2022/11/10 04:31:27;;;;;;;;;;;13.50;70.60;;;8.93;100.00;96239.91;4980232;28;19916;-51
2022/11/10 04:33:54;;;;;;;;;;;13.50;70.60;;;8.94;100.00;96241.53;4995018;28;20007;-48
2022/11/10 04:36:30;;;;;;;;;;;13.40;70.40;;;8.92;100.00;96244.44;4963450;28;20470;-49
2022/11/10 04:38:56;;;;;;;;;;;13.50;70.60;;;8.90;100.00;96246.53;4951818;28;19927;-48
2022/11/10 04:41:23;;;;;;;;;;;13.40;70.50;;;8.92;100.00;96244.44;4977636;28;19913;-54
2022/11/10 04:43:49;;;;;;;;;;;13.40;70.50;;;8.94;100.00;96245.00;4988653;28;20323;-58
2022/11/10 04:46:37;;;;;;;;;;;13.40;70.50;;;8.94;100.00;96252.97;4988710;28;19963;-52
2022/11/10 04:49:06;;;;;;;;;;;13.40;70.50;;;8.94;100.00;96255.63;4971677;28;19913;-48
2022/11/10 04:51:36;;;;;;;;;;;13.50;70.60;;;8.94;100.00;96258.28;4980911;28;19936;-53
2022/11/10 04:54:03;;;;;;;;;;;13.40;70.50;;;8.93;100.00;96254.03;4993562;28;19910;-56
2022/11/10 04:56:33;;;;;;;;;;;13.40;70.50;;;8.94;100.00;96266.25;4988085;28;19920;-53
2022/11/10 04:58:59;;;;;;;;;;;13.40;70.50;;;8.90;100.00;96261.66;4995503;28;19932;-51
2022/11/10 05:01:26;;;;;;;;;;;13.40;70.60;;;8.94;100.00;96268.91;4989982;28;19909;-57
2022/11/10 05:03:53;;;;;;;;;;;13.40;70.60;;;8.98;100.00;96266.59;4963572;28;19914;-56
2022/11/10 05:06:20;;;;;;;;;;;13.40;70.70;;;9.00;100.00;96275.94;4989747;28;20003;-49
2022/11/10 05:08:46;;;;;;;;;;;13.50;70.80;;;9.03;100.00;96272.00;4957666;28;19968;-52
2022/11/10 05:11:12;;;;;;;;;;;13.50;70.80;;;9.04;100.00;96274.41;4993694;28;19920;-52
2022/11/10 05:13:39;;;;;;;;;;;13.50;70.80;;;9.06;100.00;96276.84;4979671;28;19913;-56
2022/11/10 05:16:05;;;;;;;;;;;13.50;70.80;;;9.04;100.00;96274.41;4985714;28;20075;-55
2022/11/10 05:18:34;;;;;;;;;;;13.60;70.80;;;9.10;100.00;96277.19;4973287;28;19916;-51
2022/11/10 05:21:00;;;;;;;;;;;13.60;70.80;;;9.13;100.00;96271.38;4991791;28;19917;-55
2022/11/10 05:23:37;;;;;;;;;;;13.60;70.70;;;9.14;100.00;96279.13;4996755;28;19920;-50
2022/11/10 05:26:19;;;;;;;;;;;13.70;70.80;;;9.17;100.00;96285.81;4984560;28;20424;-51
2022/11/10 05:28:45;;;;;;;;;;;13.70;70.80;;;9.17;100.00;96285.81;4990946;28;20371;-50
2022/11/10 05:31:12;;;;;;;;;;;13.70;70.70;;;9.16;100.00;96286.88;4991573;28;20431;-48
2022/11/10 05:33:39;;;;;;;;;;;13.70;70.70;;;9.15;100.00;96296.69;4988879;28;19939;-51
2022/11/10 05:36:06;;;;;;;;;;;13.70;70.60;;;9.15;100.00;96303.84;4971406;28;19946;-58
2022/11/10 05:38:32;;;;;;;;;;;13.70;70.70;;;9.14;100.00;96313.66;4987018;28;19932;-49
2022/11/10 05:40:58;;;;;;;;;;;13.70;70.60;;;9.14;100.00;96313.66;4997592;28;19923;-53
2022/11/10 05:43:24;;;;;;;;;;;13.70;70.70;;;9.14;100.00;96334.13;4989666;28;19952;-57
2022/11/10 05:45:50;;;;;;;;;;;13.70;70.70;;;9.15;100.00;96338.38;4974446;28;20052;-50
2022/11/10 05:48:16;;;;;;;;;;;13.60;70.70;;;9.15;100.00;96343.69;4973501;28;20368;-54
2022/11/10 05:50:44;;;;;;;;;;;13.60;70.70;;;9.14;100.00;96337.59;4984857;28;20387;-54
2022/11/10 05:53:09;;;;;;;;;;;13.60;70.70;;;9.13;100.00;96340.50;4988810;28;19994;-47
2022/11/10 05:55:38;;;;;;;;;;;13.60;70.70;;;9.09;100.00;96337.50;4993117;28;19921;-50
2022/11/10 05:58:04;;;;;;;;;;;13.60;70.60;;;9.01;100.00;96338.66;4978930;28;20278;-49
2022/11/10 06:00:31;;;;;;;;;;;13.60;70.60;;;8.89;100.00;96329.13;4974321;28;19910;-56
2022/11/10 06:03:03;;;;;;;;;;;13.50;70.40;;;8.82;100.00;96336.44;4988197;28;19909;-49
2022/11/10 06:05:33;;;;;;;;;;;13.40;70.20;;;8.74;100.00;96340.22;4974813;28;19963;-50
2022/11/10 06:08:00;;;;;;;;;;;13.40;70.10;;;8.64;100.00;96343.50;4969657;28;19924;-54
2022/11/10 06:10:29;;;;;;;;;;;13.20;70.10;;;8.57;100.00;96345.47;4954149;28;20031;-58
2022/11/10 06:12:55;;;;;;;;;;;13.10;70.00;;;8.47;100.00;96348.72;4972815;28;19913;-49
2022/11/10 06:15:22;;;;;;;;;;;13.00;70.00;;;8.38;100.00;96357.22;4984119;28;19920;-48
2022/11/10 06:17:49;;;;;;;;;;;12.90;70.00;;;8.27;100.00;96364.97;4952741;28;20391;-47
2022/11/10 06:20:16;;;;;;;;;;;12.80;70.00;;;8.19;100.00;96370.63;4975667;28;19988;-51
2022/11/10 06:22:43;;;;;;;;;;;12.80;70.10;;;8.06;100.00;96376.94;4974508;28;19912;-50
2022/11/10 06:25:10;;;;;;;;;;;12.60;70.00;;;7.93;100.00;96382.47;4978004;28;19924;-51
2022/11/10 06:27:36;;;;;;;;;;;12.50;70.00;;;7.82;100.00;96380.59;4978068;28;19921;-48
2022/11/10 06:30:04;;;;;;;;;;;12.50;70.00;;;7.72;100.00;96389.09;4987221;28;19917;-52
2022/11/10 06:32:29;;;;;;;;;;;12.40;70.10;;;7.61;100.00;96388.00;4985712;28;19963;-54
2022/11/10 06:34:58;;;;;;;;;;;12.30;70.10;;;7.60;100.00;96388.25;4985139;28;19921;-47
2022/11/10 06:37:24;;;;;;;;;;;12.20;70.30;;;7.55;100.00;96386.28;4977920;28;20291;-59
2022/11/10 06:39:50;;;;;;;;;;;12.20;70.30;;;7.45;100.00;96396.59;4987724;28;20132;-49
2022/11/10 06:42:15;;;;;;;;;;;12.10;70.30;;;7.40;100.00;96399.94;4985823;28;20335;-48
2022/11/10 06:44:44;;;;;;;;;;;12.00;70.20;;;7.36;100.00;96396.13;4983206;28;20393;-48
2022/11/10 06:47:17;;;;;;;;;;;12.00;70.30;;;7.31;100.00;96403.94;4991022;28;19909;-47
2022/11/10 06:49:42;;;;;;;;;;;11.90;70.30;;;7.26;100.00;96411.75;4985056;28;19964;-55
2022/11/10 06:52:08;;;;;;;;;;;11.90;70.40;;;7.23;100.00;96411.38;4986646;28;20010;-48
2022/11/10 06:54:34;;;;;;;;;;;11.80;70.60;;;7.23;100.00;96411.38;4985483;28;20220;-47
2022/11/10 06:57:00;;;;;;;;;;;11.80;70.70;;;7.23;100.00;96422.78;4973994;28;19909;-54
2022/11/10 06:59:25;;;;;;;;;;;11.80;70.90;;;7.25;100.00;96427.88;4982733;28;19959;-56
2022/11/10 07:01:57;;;;;;;;;;;11.80;70.90;;;7.27;100.00;96429.28;4984351;28;19920;-50
2022/11/10 07:04:23;;;;;;;;;;;11.80;71.00;;;7.31;100.00;96424.34;4991576;28;19916;-46
2022/11/10 07:06:54;;;;;;;;;;;11.80;71.20;;;7.35;100.00;96417.53;4973460;28;20405;-50
2022/11/10 07:09:23;;;;;;;;;;;11.80;71.20;;;7.38;100.00;96427.69;4988895;28;19920;-52
2022/11/10 07:11:48;;;;;;;;;;;11.90;71.20;;;7.39;100.00;96432.75;4987270;28;19913;-57
2022/11/10 07:14:14;;;;;;;;;;;11.90;71.20;;;7.41;100.00;96436.00;4987588;28;19909;-49
2022/11/10 07:16:40;;;;;;;;;;;12.00;71.20;;;7.32;100.00;96437.34;4996591;28;19916;-50
2022/11/10 07:19:06;;;;;;;;;;;12.00;71.10;;;7.15;100.00;96446.94;4984489;28;19917;-46
2022/11/10 07:21:31;;;;;;;;;;;12.00;71.00;;;7.19;100.00;96448.91;4969868;28;19913;-51
2022/11/10 07:23:57;;;;;;;;;;;12.00;70.90;;;7.14;100.00;96455.91;4976388;28;19978;-55
2022/11/10 07:26:26;;;;;;;;;;;12.00;70.80;;;7.15;100.00;96458.34;4977901;28;19913;-50
2022/11/10 07:29:10;;;;;;;;;;;11.90;70.70;;;7.21;100.00;96464.63;4983852;28;19964;-53
2022/11/10 07:31:36;;;;;;;;;;;11.90;70.70;;;7.22;100.00;96478.66;4964801;28;19920;-50
2022/11/10 07:34:02;;;;;;;;;;;11.90;70.70;;;7.23;100.00;96477.63;4987759;28;19909;-52
2022/11/10 07:36:28;;;;;;;;;;;11.90;70.70;;;7.26;100.00;96482.50;4980579;28;19945;-50
2022/11/10 07:38:56;;;;;;;;;;;11.90;70.70;;;7.29;100.00;96482.03;4982973;28;20130;-50
2022/11/10 07:41:25;;;;;;;;;;;12.00;70.70;;;7.33;100.00;96483.22;4988245;28;20006;-46
2022/11/10 07:43:54;;;;;;;;;;;12.00;70.70;;;7.36;100.00;96480.94;4965531;28;20700;-54
2022/11/10 07:46:22;;;;;;;;;;;12.10;70.80;;;7.40;100.00;96486.63;4973464;28;19913;-49
2022/11/10 07:48:51;;;;;;;;;;;12.10;70.70;;;7.40;100.00;96490.06;4973173;28;19921;-47
2022/11/10 07:51:17;;;;;;;;;;;12.10;70.70;;;7.44;100.00;96502.88;4985198;28;19918;-47
2022/11/10 07:53:43;;;;;;;;;;;12.20;70.70;;;7.52;100.00;96506.06;4993737;28;20299;-53
2022/11/10 07:56:11;;;;;;;;;;;12.30;70.60;;;7.58;100.00;96515.78;4986893;28;19931;-54
2022/11/10 07:58:37;;;;;;;;;;;12.40;70.60;;;7.63;100.00;96510.59;4989282;28;19914;-56
2022/11/10 08:01:03;;;;;;;;;;;12.40;70.50;;;7.70;100.00;96521.09;4989186;28;19956;-49
2022/11/10 08:03:29;;;;;;;;;;;12.50;70.50;;;7.72;100.00;96518.25;4971396;28;19949;-47
2022/11/10 08:05:58;;;;;;;;;;;12.60;70.60;;;7.79;100.00;96530.38;4988509;28;20011;-46
2022/11/10 08:08:24;;;;;;;;;;;12.60;70.50;;;7.88;100.00;96529.03;4976532;28;20364;-47
2022/11/10 08:10:56;;;;;;;;;;;12.70;70.50;;;8.00;100.00;96521.13;4993274;28;19913;-49
2022/11/10 08:13:24;;;;;;;;;;;12.90;70.40;;;8.15;100.00;96528.69;4985923;28;19917;-51
2022/11/10 08:15:50;;;;;;;;;;;13.10;70.40;;;8.25;100.00;96530.81;4981845;28;19913;-49
2022/11/10 08:18:22;;;;;;;;;;;13.20;70.30;;;8.35;100.00;96536.38;4971938;28;19917;-47
2022/11/10 08:20:48;;;;;;;;;;;13.40;70.30;;;8.43;100.00;96535.25;4972752;28;19921;-47
2022/11/10 08:23:16;;;;;;;;;;;13.60;70.10;;;8.46;100.00;96548.91;4972553;28;20410;-53
2022/11/10 08:25:46;;;;;;;;;;;13.80;69.90;;;8.54;100.00;96537.13;4980592;28;20369;-48
2022/11/10 08:28:18;;;;;;;;;;;13.90;69.70;;;8.60;100.00;96546.84;4984311;28;20499;-54
2022/11/10 08:30:46;;;;;;;;;;;14.00;69.60;;;8.70;100.00;96547.09;4967311;28;19913;-52
2022/11/10 08:33:16;;;;;;;;;;;14.10;69.60;;;8.77;100.00;96550.47;4991809;28;19917;-50
2022/11/10 08:35:46;;;;;;;;;;;14.10;69.50;;;8.77;100.00;96561.09;4974516;28;19914;-58
2022/11/10 08:38:14;;;;;;;;;;;14.10;69.30;;;8.66;100.00;96566.38;4963342;28;19918;-51
2022/11/10 08:40:40;;;;;;;;;;;14.20;69.30;;;8.87;100.00;96562.34;4976733;28;19917;-50
2022/11/10 08:43:07;;;;;;;;;;;14.30;69.30;;;8.92;100.00;96559.81;4988685;28;19923;-55
2022/11/10 08:45:40;;;;;;;;;;;14.30;69.20;;;9.01;100.00;96566.41;4988959;28;19922;-49
2022/11/10 08:48:16;;;;;;;;;;;14.40;69.10;;;9.15;100.00;96575.78;4973629;28;19909;-47
2022/11/10 08:50:48;;;;;;;;;;;14.50;69.10;;;9.27;100.00;96571.28;4972186;28;19909;-50
2022/11/10 08:53:19;;;;;;;;;;;14.70;69.10;;;9.43;100.00;96582.22;4984566;28;19948;-55
2022/11/10 08:55:46;;;;;;;;;;;14.80;69.00;;;9.43;100.00;96582.22;4989000;28;19920;-54
2022/11/10 08:58:16;;;;;;;;;;;15.00;68.90;;;9.31;100.00;96584.91;4974262;28;19948;-50
2022/11/10 09:00:42;;;;;;;;;;;15.00;68.60;;;9.11;100.00;96597.72;4981540;28;20015;-52
2022/11/10 09:03:19;;;;;;;;;;;15.10;68.30;;;9.25;100.00;96591.16;4991151;28;19917;-50
2022/11/10 09:05:50;;;;;;;;;;;15.10;68.30;;;9.44;100.00;96589.19;4976408;28;19920;-54
2022/11/10 09:08:19;;;;;;;;;;;15.20;68.40;;;9.52;100.00;96596.00;4989765;28;19913;-54
2022/11/10 09:10:48;;;;;;;;;;;15.20;68.30;;;9.61;100.00;96608.69;4969311;28;19910;-52
2022/11/10 09:13:16;;;;;;;;;;;15.30;68.30;;;9.73;100.00;96616.69;4984156;28;19916;-52
2022/11/10 09:15:43;;;;;;;;;;;15.30;68.20;;;9.77;100.00;96617.81;4956420;28;19913;-51
2022/11/10 09:18:12;;;;;;;;;;;15.40;68.30;;;9.80;100.00;96620.00;4978115;28;19913;-51
2022/11/10 09:20:39;;;;;;;;;;;15.50;68.30;;;9.63;100.00;96617.28;4992694;28;19913;-54
2022/11/10 09:23:12;;;;;;;;;;;15.50;68.10;;;9.66;100.00;96622.13;4985863;28;19912;-52
2022/11/10 09:25:39;;;;;;;;;;;15.50;68.00;;;9.73;100.00;96619.34;4986218;28;20418;-53
2022/11/10 09:28:05;;;;;;;;;;;15.50;68.00;;;9.77;100.00;96622.34;4978080;23;19922;-55
2022/11/10 09:30:31;;;;;;;;;;;15.50;68.00;;;9.84;100.00;96618.53;4946968;28;19992;-50
2022/11/10 09:32:59;;;;;;;;;;;15.60;68.00;;;9.97;100.00;96614.78;4947221;28;19913;-53
2022/11/10 09:35:26;;;;;;;;;;;15.60;68.00;;;10.13;100.00;96618.56;4960787;28;19913;-53
2022/11/10 09:37:51;;;;;;;;;;;15.70;67.90;;;10.32;100.00;96609.38;4960676;28;19956;-51
2022/11/10 09:40:27;;;;;;;;;;;15.80;68.00;;;10.36;100.00;96617.69;4942262;28;20308;-55
2022/11/10 09:43:01;;;;;;;;;;;15.90;68.00;;;10.40;100.00;96610.84;4942533;28;19946;-55
2022/11/10 09:45:41;;;;;;;;;;;16.00;67.80;;;10.52;100.00;96619.59;4941590;28;19936;-55
2022/11/10 09:48:20;;;;;;;;;;;16.20;67.70;;;10.52;100.00;96621.47;4945622;28;19910;-56
2022/11/10 09:51:18;;;;;;;;;;;16.20;67.50;;;10.70;99.37;96629.25;4959918;28;20353;-50
2022/11/10 09:54:01;;;;;;;;;;;16.40;67.40;;;10.81;98.64;96625.72;4958860;28;19910;-52
2022/11/10 09:56:36;;;;;;;;;;;16.50;67.30;;;10.85;97.63;96632.19;4943301;28;20363;-55
2022/11/10 09:59:29;;;;;;;;;;;16.50;67.00;;;10.93;97.48;96638.16;4962774;28;19910;-53
2022/11/10 10:02:35;;;;;;;;;;;16.60;67.10;;;11.00;96.66;96636.97;4959910;28;19910;-56
2022/11/10 10:05:30;;;;;;;;;;;16.70;67.00;;;10.91;94.79;96632.28;4943440;28;20326;-53
2022/11/10 10:08:25;;;;;;;;;;;16.80;66.70;;;10.96;95.86;96635.81;4944536;28;20114;-55
2022/11/10 10:11:35;;;;;;;;;;;16.80;66.50;;;11.06;95.61;96640.50;4933179;28;19913;-53
2022/11/10 10:14:31;;;;;;;;;;;16.80;66.50;;;11.02;94.79;96636.72;4961002;28;19914;-54
2022/11/10 10:17:39;;;;;;;;;;;16.80;66.50;;;10.99;94.10;96635.34;4959884;28;20376;-53
2022/11/10 10:20:30;;;;;;;;;;;16.70;66.30;;;10.91;94.34;96632.28;4940287;28;19925;-54
2022/11/10 10:23:33;;;;;;;;;;;16.70;66.20;;;10.96;94.17;96635.00;4946349;28;20301;-55
2022/11/10 10:26:00;;;;;;;;;;;16.70;66.10;;;10.94;95.16;96634.47;4951743;28;20266;-57
2022/11/10 10:28:48;;;;;;;;;;;16.60;66.90;;;10.85;94.21;96631.38;4960645;28;19929;-57
2022/11/10 10:31:29;;;;;;;;;;;16.60;66.10;;;11.02;94.78;96634.06;4944608;28;19910;-56
2022/11/10 10:33:55;;;;;;;;;;;16.60;66.10;;;11.18;93.99;96635.09;4945775;28;19944;-53
2022/11/10 10:36:28;;;;;;;;;;;16.70;66.20;;;10.99;94.26;96637.19;4959398;28;19919;-54
2022/11/10 10:39:40;;;;;;;;;;;16.80;66.00;;;11.17;93.84;96642.31;4959228;28;19918;-53
2022/11/10 10:42:22;;;;;;;;;;;17.00;66.00;;;11.06;91.32;96641.34;4936900;28;19914;-53
2022/11/10 10:45:21;;;;;;;;;;;17.20;65.80;;;11.22;91.25;96647.72;4944104;28;19914;-53
2022/11/10 10:47:52;;;;;;;;;;;17.40;65.60;;;11.45;92.86;96656.63;4961435;28;19920;-55
2022/11/10 10:50:28;;;;;;;;;;;17.50;65.40;;;11.66;91.60;96666.53;4941506;28;19919;-53
2022/11/10 10:53:20;;;;;;;;;;;17.60;65.40;;;11.71;91.00;96663.94;4942109;28;19918;-55
2022/11/10 10:56:12;;;;;;;;;;;17.70;65.30;;;11.70;89.10;96667.66;4956452;28;19961;-53
2022/11/10 10:58:55;;;;;;;;;;;17.70;65.00;;;11.84;87.93;96669.97;4942508;28;19921;-53
2022/11/10 11:01:33;;;;;;;;;;;17.80;64.80;;;11.89;86.84;96662.88;4943853;28;19913;-54
2022/11/10 11:04:04;;;;;;;;;;;17.90;64.60;;;11.80;88.15;96667.81;4944773;28;20266;-56
2022/11/10 11:06:34;;;;;;;;;;;17.90;64.40;;;11.89;87.62;96664.75;4946232;28;19910;-54
2022/11/10 11:09:13;;;;;;;;;;;18.00;64.30;;;11.87;87.52;96662.31;4909157;28;19910;-55
2022/11/10 11:11:42;;;;;;;;;;;18.00;64.10;;;11.73;87.16;96661.84;4926769;28;20321;-55
2022/11/10 11:14:28;;;;;;;;;;;18.10;64.10;;;11.75;88.19;96664.25;4961019;28;19914;-54
2022/11/10 11:17:02;;;;;;;;;;;18.00;64.00;;;11.82;87.68;96665.69;4945297;28;20565;-50
2022/11/10 11:19:36;;;;;;;;;;;17.90;64.00;;;11.88;87.00;96673.81;4944120;28;19910;-53
2022/11/10 11:22:42;;;;;;;;;;;17.90;63.90;;;11.92;85.89;96666.94;4943108;28;20535;-55
2022/11/10 11:25:42;;;;;;;;;;;17.90;63.90;;;11.94;85.46;96662.13;4944308;28;19914;-55
2022/11/10 11:28:40;;;;;;;;;;;17.90;63.80;;;11.97;85.14;96658.97;4942388;28;19925;-56
2022/11/10 11:31:50;;;;;;;;;;;17.90;63.60;;;11.69;85.98;96657.22;4947081;28;20277;-54
2022/11/10 11:34:43;;;;;;;;;;;18.00;63.30;;;11.54;84.44;96663.16;4943178;28;19926;-55
2022/11/10 11:37:39;;;;;;;;;;;18.10;63.10;;;11.32;86.13;96658.56;4959841;28;19914;-52
2022/11/10 11:40:44;;;;;;;;;;;18.00;62.90;;;11.38;88.14;96653.31;4946455;28;19993;-56
2022/11/10 11:43:33;;;;;;;;;;;18.10;62.90;;;11.52;86.32;96647.38;4949541;28;20397;-56
2022/11/10 11:46:37;;;;;;;;;;;18.20;63.00;;;11.87;85.65;96650.84;4958188;28;19933;-56